Time;durP1;ratioP1;P1;durP2;ratioP2;P2;SDS_P1;SDS_P2;PMS_P1;PMS_P2;Temp;Humidity;BMP_temperature;BMP_pressure;BME280_temperature;BME280_humidity;BME280_pressure;Samples;Min_cycle;Max_cycle;Signal;HPM_P1;HPM_P2
2023/03/19 00:04:09;;;;;;;27.05;19.08;;;;;;;;;;10181998;28;20540;-67
2023/03/19 00:09:03;;;;;;;20.40;18.27;;;;;;;;;;10190181;28;20055;-66
2023/03/19 00:13:57;;;;;;;24.10;18.23;;;;;;;;;;10188179;28;20047;-66
2023/03/19 00:18:50;;;;;;;23.10;19.08;;;;;;;;;;10186828;28;20048;-66
2023/03/19 00:23:44;;;;;;;21.77;17.65;;;;;;;;;;10188722;28;20484;-66
2023/03/19 00:28:39;;;;;;;20.17;16.95;;;;;;;;;;10189418;28;20110;-66
2023/03/19 00:33:35;;;;;;;23.63;18.40;;;;;;;;;;10185780;28;20055;-66
2023/03/19 00:38:29;;;;;;;29.48;20.83;;;;;;;;;;10186890;28;20079;-66
2023/03/19 00:43:23;;;;;;;22.85;19.27;;;;;;;;;;10185852;28;20047;-66
2023/03/19 00:48:17;;;;;;;23.80;18.65;;;;;;;;;;10187402;28;20067;-66
2023/03/19 00:53:10;;;;;;;22.65;18.60;;;;;;;;;;10187238;28;20504;-69
2023/03/19 00:58:05;;;;;;;27.17;21.73;;;;;;;;;;10178811;28;20131;-67
2023/03/19 01:03:00;;;;;;;21.48;18.88;;;;;;;;;;10186158;28;20075;-67
2023/03/19 01:07:54;;;;;;;26.15;19.80;;;;;;;;;;10187783;28;20450;-67
2023/03/19 01:12:48;;;;;;;25.35;18.75;;;;;;;;;;10187650;28;20087;-67
2023/03/19 01:17:41;;;;;;;21.77;17.73;;;;;;;;;;10185781;28;20113;-67
2023/03/19 01:22:37;;;;;;;28.63;19.52;;;;;;;;;;10187658;28;20048;-67
2023/03/19 01:27:30;;;;;;;24.10;19.42;;;;;;;;;;10186633;28;20054;-67
2023/03/19 01:32:25;;;;;;;27.38;20.20;;;;;;;;;;10185886;28;20047;-67
2023/03/19 01:37:43;;;;;;;24.40;19.83;;;;;;;;;;10185909;28;20044;-67
2023/03/19 01:42:57;;;;;;;22.33;19.20;;;;;;;;;;10179274;28;20087;-67
2023/03/19 01:48:42;;;;;;;27.10;19.85;;;;;;;;;;10080695;28;20138;-67
2023/03/19 01:53:39;;;;;;;;;;;;;;;;;;10165596;28;20135;-67
2023/03/19 01:58:40;;;;;;;21.75;18.40;;;;;;;;;;10185211;28;19920;-67
2023/03/19 02:03:53;;;;;;;25.60;19.27;;;;;;;;;;10158566;28;20094;-67
2023/03/19 02:08:52;;;;;;;24.47;17.13;;;;;;;;;;10174070;28;20052;-67
2023/03/19 02:13:46;;;;;;;22.98;19.13;;;;;;;;;;10177174;28;20044;-67
2023/03/19 02:18:38;;;;;;;18.80;16.88;;;;;;;;;;10173833;28;20048;-67
2023/03/19 02:23:52;;;;;;;19.80;16.95;;;;;;;;;;10167897;28;20138;-67
2023/03/19 02:28:58;;;;;;;23.30;18.70;;;;;;;;;;10187478;28;20044;-67
2023/03/19 02:34:00;;;;;;;23.15;19.05;;;;;;;;;;10181260;28;20048;-67
2023/03/19 02:38:54;;;;;;;21.65;18.60;;;;;;;;;;10178739;28;20360;-67
2023/03/19 02:43:48;;;;;;;23.70;18.92;;;;;;;;;;10184583;28;20455;-67
2023/03/19 02:48:42;;;;;;;23.48;19.58;;;;;;;;;;10181786;28;20079;-67
2023/03/19 02:53:35;;;;;;;24.83;19.80;;;;;;;;;;10183212;28;20454;-67
2023/03/19 02:58:28;;;;;;;27.15;21.13;;;;;;;;;;10190351;28;20048;-67
2023/03/19 03:03:22;;;;;;;25.73;21.17;;;;;;;;;;10182620;28;20511;-67
2023/03/19 03:08:15;;;;;;;24.90;19.98;;;;;;;;;;10193114;28;20492;-67
2023/03/19 03:13:08;;;;;;;27.92;20.15;;;;;;;;;;10193016;28;20478;-67
2023/03/19 03:18:02;;;;;;;26.25;19.40;;;;;;;;;;10192412;28;20044;-67
2023/03/19 03:22:56;;;;;;;23.52;19.75;;;;;;;;;;10188282;28;20466;-67
2023/03/19 03:27:50;;;;;;;25.23;21.17;;;;;;;;;;10191871;28;20052;-67
2023/03/19 03:32:43;;;;;;;21.33;19.05;;;;;;;;;;10190671;28;20062;-67
2023/03/19 03:37:37;;;;;;;23.13;19.40;;;;;;;;;;10191676;28;20139;-67
2023/03/19 03:42:30;;;;;;;24.52;20.33;;;;;;;;;;10190989;28;20044;-67
2023/03/19 03:47:23;;;;;;;21.45;18.23;;;;;;;;;;10189443;28;20055;-67
2023/03/19 03:52:16;;;;;;;22.30;19.48;;;;;;;;;;10185416;28;20055;-67
2023/03/19 03:57:09;;;;;;;26.50;20.95;;;;;;;;;;10178338;28;20044;-67
2023/03/19 04:02:02;;;;;;;27.48;20.98;;;;;;;;;;10177781;28;20382;-67
2023/03/19 04:06:56;;;;;;;29.50;21.15;;;;;;;;;;10180852;28;20047;-67
2023/03/19 04:11:59;;;;;;;25.45;19.55;;;;;;;;;;10177177;28;20084;-67
2023/03/19 04:16:52;;;;;;;28.92;22.88;;;;;;;;;;10188583;28;20036;-67
2023/03/19 04:21:44;;;;;;;36.13;24.02;;;;;;;;;;10190677;28;20520;-67
2023/03/19 04:26:38;;;;;;;26.17;22.33;;;;;;;;;;10176997;28;20134;-67
2023/03/19 04:31:32;;;;;;;31.33;23.17;;;;;;;;;;10183896;28;20047;-66
2023/03/19 04:36:27;;;;;;;30.85;23.20;;;;;;;;;;10183177;28;20055;-67
2023/03/19 04:41:24;;;;;;;28.45;21.17;;;;;;;;;;10175918;28;20492;-67
2023/03/19 04:46:37;;;;;;;22.73;20.10;;;;;;;;;;10177630;28;20066;-66
2023/03/19 04:51:32;;;;;;;24.75;20.48;;;;;;;;;;10187260;28;20046;-67
2023/03/19 04:56:26;;;;;;;26.55;19.77;;;;;;;;;;10183335;28;20124;-67
2023/03/19 05:01:21;;;;;;;27.42;20.00;;;;;;;;;;10182701;28;20080;-67
2023/03/19 05:06:28;;;;;;;21.80;18.10;;;;;;;;;;10167278;28;20052;-67
2023/03/19 05:11:22;;;;;;;21.73;19.42;;;;;;;;;;10186424;28;20514;-67
2023/03/19 05:16:27;;;;;;;21.75;18.85;;;;;;;;;;10173310;28;20525;-67
2023/03/19 05:21:21;;;;;;;25.52;19.73;;;;;;;;;;10178574;28;20048;-67
2023/03/19 05:26:17;;;;;;;23.40;18.92;;;;;;;;;;10182652;28;20420;-67
2023/03/19 05:31:31;;;;;;;24.65;19.98;;;;;;;;;;10145853;28;20444;-67
2023/03/19 05:36:24;;;;;;;24.83;21.33;;;;;;;;;;10180277;28;20064;-67
2023/03/19 05:41:41;;;;;;;25.23;19.40;;;;;;;;;;10186357;28;20101;-67
2023/03/19 05:46:37;;;;;;;24.30;19.15;;;;;;;;;;10183755;28;20059;-67
2023/03/19 05:51:31;;;;;;;24.92;19.35;;;;;;;;;;10186946;28;20048;-67
2023/03/19 05:56:28;;;;;;;21.55;17.58;;;;;;;;;;10187016;28;20089;-67
2023/03/19 06:01:40;;;;;;;20.02;15.50;;;;;;;;;;10185879;28;20134;-67
2023/03/19 06:06:33;;;;;;;18.83;16.40;;;;;;;;;;10182639;28;20416;-67
2023/03/19 06:11:27;;;;;;;20.48;16.92;;;;;;;;;;10183863;28;20056;-66
2023/03/19 06:16:42;;;;;;;23.95;17.98;;;;;;;;;;10195346;28;20054;-66
2023/03/19 06:21:36;;;;;;;28.63;18.90;;;;;;;;;;10173801;28;20393;-66
2023/03/19 06:26:30;;;;;;;21.17;18.33;;;;;;;;;;10173001;28;20055;-65
2023/03/19 06:31:27;;;;;;;23.23;17.15;;;;;;;;;;10178254;28;20468;-65
2023/03/19 06:36:25;;;;;;;20.60;17.17;;;;;;;;;;10182814;28;20054;-67
2023/03/19 06:41:18;;;;;;;26.40;17.65;;;;;;;;;;10172949;28;20139;-66
2023/03/19 06:46:13;;;;;;;25.80;18.13;;;;;;;;;;10163651;28;20048;-66
2023/03/19 06:51:06;;;;;;;26.70;19.15;;;;;;;;;;10178197;28;20044;-66
2023/03/19 06:56:00;;;;;;;22.45;18.73;;;;;;;;;;10166793;28;20052;-66
2023/03/19 07:00:55;;;;;;;27.98;18.38;;;;;;;;;;10159513;28;20127;-67
2023/03/19 07:05:50;;;;;;;20.48;18.08;;;;;;;;;;10171977;28;20040;-65
2023/03/19 07:10:44;;;;;;;27.08;18.10;;;;;;;;;;10174159;28;20048;-65
2023/03/19 07:15:37;;;;;;;23.27;16.33;;;;;;;;;;10177817;28;20052;-66
2023/03/19 07:20:31;;;;;;;20.90;16.83;;;;;;;;;;10183794;28;20055;-65
2023/03/19 07:25:25;;;;;;;21.55;16.00;;;;;;;;;;10177869;28;20416;-65
2023/03/19 07:30:19;;;;;;;29.33;18.08;;;;;;;;;;10185627;28;20070;-65
2023/03/19 07:35:13;;;;;;;21.70;17.70;;;;;;;;;;10183680;28;20048;-65
2023/03/19 07:40:08;;;;;;;21.00;16.42;;;;;;;;;;10183781;28;20476;-66
2023/03/19 07:45:02;;;;;;;23.63;16.83;;;;;;;;;;10190288;28;20423;-67
2023/03/19 07:49:57;;;;;;;19.15;15.63;;;;;;;;;;10181448;28;20050;-66
2023/03/19 07:54:51;;;;;;;17.75;14.40;;;;;;;;;;10190198;28;20052;-66
2023/03/19 07:59:44;;;;;;;20.13;15.60;;;;;;;;;;10190308;28;20050;-66
2023/03/19 08:04:38;;;;;;;19.67;14.65;;;;;;;;;;10189797;28;20043;-66
2023/03/19 08:09:33;;;;;;;20.42;14.25;;;;;;;;;;10190559;28;20463;-66
2023/03/19 08:14:27;;;;;;;19.17;14.70;;;;;;;;;;10189638;28;20115;-66
2023/03/19 08:19:21;;;;;;;20.92;16.73;;;;;;;;;;10190249;28;20049;-66
2023/03/19 08:24:14;;;;;;;24.27;16.90;;;;;;;;;;10188805;28;20048;-67
2023/03/19 08:29:08;;;;;;;22.13;17.20;;;;;;;;;;10188123;28;20044;-67
2023/03/19 08:34:03;;;;;;;25.95;16.88;;;;;;;;;;10189093;28;20051;-67
2023/03/19 08:38:57;;;;;;;27.20;17.52;;;;;;;;;;10189244;28;20075;-67
2023/03/19 08:43:51;;;;;;;22.95;16.77;;;;;;;;;;10187443;28;20397;-65
2023/03/19 08:48:45;;;;;;;18.05;14.57;;;;;;;;;;10188592;28;20054;-66
2023/03/19 08:53:38;;;;;;;19.17;14.00;;;;;;;;;;10186959;28;20058;-67
2023/03/19 08:58:32;;;;;;;19.77;13.82;;;;;;;;;;10188701;28;20048;-66
2023/03/19 09:03:26;;;;;;;17.55;13.95;;;;;;;;;;10185537;28;20066;-67
2023/03/19 09:08:20;;;;;;;17.25;12.77;;;;;;;;;;10185067;28;20044;-67
2023/03/19 09:13:14;;;;;;;18.75;14.52;;;;;;;;;;10177112;28;20048;-67
2023/03/19 09:18:08;;;;;;;16.52;12.05;;;;;;;;;;10178276;28;20131;-67
2023/03/19 09:23:02;;;;;;;18.05;14.25;;;;;;;;;;10183799;28;20051;-68
2023/03/19 09:27:58;;;;;;;16.20;14.37;;;;;;;;;;10179078;28;20081;-68
2023/03/19 09:32:53;;;;;;;17.42;13.68;;;;;;;;;;10179110;28;20043;-67
2023/03/19 09:37:47;;;;;;;15.35;13.75;;;;;;;;;;10180734;28;20044;-68
2023/03/19 09:43:15;;;;;;;13.38;12.02;;;;;;;;;;10177654;28;20567;-67
2023/03/19 09:48:14;;;;;;;13.77;12.38;;;;;;;;;;10141104;28;20059;-68
2023/03/19 09:53:17;;;;;;;13.18;11.73;;;;;;;;;;10173083;28;20055;-66
2023/03/19 09:58:14;;;;;;;16.42;13.13;;;;;;;;;;10177762;28;20127;-68
2023/03/19 10:03:54;;;;;;;18.73;13.80;;;;;;;;;;10177778;28;20497;-66
2023/03/19 10:09:17;;;;;;;15.43;12.65;;;;;;;;;;10078014;28;20048;-65
2023/03/19 10:14:24;;;;;;;16.88;14.32;;;;;;;;;;10180609;28;20044;-66
2023/03/19 10:19:21;;;;;;;21.77;15.77;;;;;;;;;;10175135;28;20059;-66
2023/03/19 10:24:26;;;;;;;16.63;14.87;;;;;;;;;;10168530;28;20052;-66
2023/03/19 10:29:20;;;;;;;18.45;16.30;;;;;;;;;;10174292;28;20048;-66
2023/03/19 10:34:38;;;;;;;16.75;15.02;;;;;;;;;;10167846;28;20044;-68
2023/03/19 10:39:36;;;;;;;21.63;17.02;;;;;;;;;;10111686;28;20052;-67
2023/03/19 10:44:31;;;;;;;18.20;16.30;;;;;;;;;;10177722;28;20052;-68
2023/03/19 10:49:24;;;;;;;18.35;16.50;;;;;;;;;;10180102;28;20060;-68
2023/03/19 10:54:23;;;;;;;19.77;17.38;;;;;;;;;;10190104;28;20040;-67
2023/03/19 10:59:25;;;;;;;17.48;15.68;;;;;;;;;;10191969;28;20523;-67
2023/03/19 11:04:22;;;;;;;19.83;16.90;;;;;;;;;;10190514;28;20131;-67
2023/03/19 11:09:31;;;;;;;20.30;18.20;;;;;;;;;;10192197;28;20740;-67
2023/03/19 11:14:47;;;;;;;22.73;17.73;;;;;;;;;;10174822;28;20048;-68
2023/03/19 11:20:04;;;;;;;19.67;17.65;;;;;;;;;;10190291;28;20118;-67
2023/03/19 11:25:01;;;;;;;23.98;18.83;;;;;;;;;;10188353;28;20070;-66
2023/03/19 11:29:54;;;;;;;24.65;20.10;;;;;;;;;;10191903;28;20052;-66
2023/03/19 11:35:12;;;;;;;20.30;18.13;;;;;;;;;;10192043;28;20079;-65
2023/03/19 11:40:30;;;;;;;21.55;17.80;;;;;;;;;;10190687;28;20048;-65
2023/03/19 11:45:46;;;;;;;25.48;20.65;;;;;;;;;;10178045;28;20152;-66
2023/03/19 11:51:07;;;;;;;22.15;19.00;;;;;;;;;;10182940;28;20047;-65
2023/03/19 11:56:01;;;;;;;23.60;18.95;;;;;;;;;;10181488;28;20135;-66
2023/03/19 12:00:56;;;;;;;22.65;20.27;;;;;;;;;;10189607;28;20044;-66
2023/03/19 12:06:35;;;;;;;22.50;20.00;;;;;;;;;;10189975;28;20451;-63
2023/03/19 12:11:54;;;;;;;30.10;22.30;;;;;;;;;;10020688;28;20071;-63
2023/03/19 12:17:02;;;;;;;38.88;27.45;;;;;;;;;;10145360;28;20095;-63
2023/03/19 12:22:33;;;;;;;25.33;21.05;;;;;;;;;;10178606;28;20032;-62
2023/03/19 12:27:37;;;;;;;22.08;19.52;;;;;;;;;;10113739;28;20169;-63
2023/03/19 12:32:38;;;;;;;23.58;19.27;;;;;;;;;;10181728;28;20052;-62
2023/03/19 12:37:41;;;;;;;22.65;20.08;;;;;;;;;;10182446;28;20497;-62
2023/03/19 12:42:38;;;;;;;24.38;19.75;;;;;;;;;;10155268;28;20051;-62
2023/03/19 12:47:35;;;;;;;28.88;19.70;;;;;;;;;;10176509;28;20508;-62
2023/03/19 12:52:37;;;;;;;23.38;20.80;;;;;;;;;;10154623;28;20428;-62
2023/03/19 12:57:37;;;;;;;28.77;22.45;;;;;;;;;;10155341;28;20041;-62
2023/03/19 13:02:39;;;;;;;24.38;21.92;;;;;;;;;;10169239;28;20048;-62
2023/03/19 13:07:44;;;;;;;24.95;22.38;;;;;;;;;;10176285;28;20044;-63
2023/03/19 13:12:38;;;;;;;26.02;21.77;;;;;;;;;;10166961;28;20059;-62
2023/03/19 13:18:07;;;;;;;29.00;23.25;;;;;;;;;;10187419;28;20051;-62
2023/03/19 13:23:03;;;;;;;28.70;25.77;;;;;;;;;;10184672;28;20084;-64
2023/03/19 13:27:57;;;;;;;26.20;23.52;;;;;;;;;;10187079;28;20052;-63
2023/03/19 13:33:03;;;;;;;25.65;22.13;;;;;;;;;;10186376;28;20036;-63
2023/03/19 13:38:20;;;;;;;20.90;18.83;;;;;;;;;;10183174;28;20470;-65
2023/03/19 13:43:32;;;;;;;20.00;17.67;;;;;;;;;;10160380;28;20083;-68
2023/03/19 13:48:25;;;;;;;23.00;17.15;;;;;;;;;;10168842;28;20513;-65
2023/03/19 13:53:31;;;;;;;22.30;17.80;;;;;;;;;;10177576;28;20666;-64
2023/03/19 13:58:53;;;;;;;18.48;14.57;;;;;;;;;;10180524;28;20135;-64
2023/03/19 14:03:55;;;;;;;23.45;18.48;;;;;;;;;;10188066;28;20048;-63
2023/03/19 14:08:50;;;;;;;24.88;17.50;;;;;;;;;;10154699;28;20071;-66
2023/03/19 14:13:47;;;;;;;17.40;15.68;;;;;;;;;;10180547;28;20507;-66
2023/03/19 14:18:41;;;;;;;17.88;15.02;;;;;;;;;;10177781;28;20097;-65
2023/03/19 14:23:38;;;;;;;17.98;14.68;;;;;;;;;;10177655;28;20493;-66
2023/03/19 14:28:44;;;;;;;20.85;15.05;;;;;;;;;;10172209;28;20564;-66
2023/03/19 14:34:06;;;;;;;16.95;14.82;;;;;;;;;;10180775;28;20139;-66
2023/03/19 14:39:03;;;;;;;20.52;14.10;;;;;;;;;;10180996;28;20048;-66
2023/03/19 14:44:32;;;;;;;22.02;15.50;;;;;;;;;;10154669;28;20067;-66
2023/03/19 14:49:26;;;;;;;19.73;15.15;;;;;;;;;;10114720;28;20052;-67
2023/03/19 14:54:43;;;;;;;17.45;14.50;;;;;;;;;;10164137;28;20064;-68
2023/03/19 14:59:38;;;;;;;15.70;12.68;;;;;;;;;;10150834;28;20495;-71
2023/03/19 15:04:30;;;;;;;15.60;13.40;;;;;;;;;;10171065;28;20554;-71
2023/03/19 15:09:30;;;;;;;16.05;12.35;;;;;;;;;;10173342;28;20471;-71
2023/03/19 15:14:34;;;;;;;14.40;10.93;;;;;;;;;;10151596;28;20079;-72
2023/03/19 15:19:29;;;;;;;17.35;11.23;;;;;;;;;;10173835;28;20118;-67
2023/03/19 15:24:23;;;;;;;13.98;10.45;;;;;;;;;;10169938;28;20055;-67
2023/03/19 15:29:17;;;;;;;14.05;11.32;;;;;;;;;;10168818;28;20079;-67
2023/03/19 15:34:24;;;;;;;13.05;10.30;;;;;;;;;;10171084;28;20098;-67
2023/03/19 15:39:19;;;;;;;11.65;7.85;;;;;;;;;;10178028;28;20044;-67
2023/03/19 15:44:17;;;;;;;14.63;9.18;;;;;;;;;;10182750;28;20389;-67
2023/03/19 15:49:16;;;;;;;11.57;9.85;;;;;;;;;;10167719;28;20048;-67
2023/03/19 15:54:08;;;;;;;;;;;;;;;;;;10182639;28;20480;-67
2023/03/19 15:59:01;;;;;;;12.45;9.80;;;;;;;;;;10181101;28;19973;-67
2023/03/19 16:04:28;;;;;;;14.82;9.38;;;;;;;;;;10182097;28;20052;-67
2023/03/19 16:09:33;;;;;;;17.85;10.18;;;;;;;;;;10170886;28;20056;-67
2023/03/19 16:14:30;;;;;;;14.75;9.85;;;;;;;;;;10183033;28;20459;-67
2023/03/19 16:19:37;;;;;;;15.50;10.65;;;;;;;;;;10178523;28;20097;-67
2023/03/19 16:24:34;;;;;;;23.30;13.73;;;;;;;;;;10179189;28;20369;-67
2023/03/19 16:29:34;;;;;;;20.70;14.40;;;;;;;;;;10168448;28;20044;-67
2023/03/19 16:35:04;;;;;;;25.67;14.13;;;;;;;;;;10181778;28;20348;-67
2023/03/19 16:40:12;;;;;;;19.52;13.43;;;;;;;;;;10170251;28;20052;-67
2023/03/19 16:45:25;;;;;;;25.98;13.82;;;;;;;;;;10178572;28;20057;-67
2023/03/19 16:50:22;;;;;;;17.60;13.75;;;;;;;;;;10168189;28;20060;-67
2023/03/19 16:55:23;;;;;;;17.20;12.25;;;;;;;;;;10181573;28;20059;-67
2023/03/19 17:00:19;;;;;;;21.77;12.48;;;;;;;;;;10171881;28;20139;-65
2023/03/19 17:05:14;;;;;;;17.95;13.05;;;;;;;;;;10175875;28;20072;-67
2023/03/19 17:10:17;;;;;;;16.80;12.13;;;;;;;;;;10178435;28;20048;-67
2023/03/19 17:15:35;;;;;;;14.40;11.20;;;;;;;;;;10177989;28;20064;-66
2023/03/19 17:20:36;;;;;;;14.98;11.85;;;;;;;;;;10166617;28;20048;-66
2023/03/19 17:25:33;;;;;;;21.20;13.48;;;;;;;;;;10173033;28;20053;-66
2023/03/19 17:30:27;;;;;;;19.83;14.07;;;;;;;;;;10179128;28;20044;-65
2023/03/19 17:35:21;;;;;;;22.88;14.82;;;;;;;;;;10174530;28;20068;-66
2023/03/19 17:40:21;;;;;;;18.25;14.65;;;;;;;;;;10176720;28;20057;-66
2023/03/19 17:45:17;;;;;;;22.10;16.77;;;;;;;;;;10179271;28;20492;-66
2023/03/19 17:50:19;;;;;;;23.98;17.10;;;;;;;;;;10180490;28;20055;-65
2023/03/19 17:55:20;;;;;;;22.40;16.58;;;;;;;;;;10159810;28;20434;-66
2023/03/19 18:00:13;;;;;;;18.55;15.70;;;;;;;;;;10173779;28;20086;-66
2023/03/19 18:05:15;;;;;;;18.20;16.15;;;;;;;;;;10174698;28;20059;-66
2023/03/19 18:10:20;;;;;;;19.13;15.15;;;;;;;;;;10150140;28;20330;-66
2023/03/19 18:15:14;;;;;;;23.40;16.20;;;;;;;;;;10172206;28;20047;-66
2023/03/19 18:20:13;;;;;;;20.77;15.60;;;;;;;;;;10172093;28;20130;-66
2023/03/19 18:25:37;;;;;;;17.58;15.45;;;;;;;;;;10170025;28;20423;-66
2023/03/19 18:30:33;;;;;;;20.88;16.38;;;;;;;;;;10175615;28;20048;-65
2023/03/19 18:35:32;;;;;;;27.60;22.08;;;;;;;;;;10179506;28;20127;-66
2023/03/19 18:40:28;;;;;;;25.77;17.33;;;;;;;;;;10164786;28;20106;-66
2023/03/19 18:45:22;;;;;;;27.15;22.33;;;;;;;;;;10175887;28;20101;-66
2023/03/19 18:50:21;;;;;;;25.67;18.50;;;;;;;;;;10175961;28;20048;-65
2023/03/19 18:55:15;;;;;;;21.05;16.40;;;;;;;;;;10173220;28;20050;-65
2023/03/19 19:00:20;;;;;;;21.33;18.92;;;;;;;;;;10170603;28;20079;-64
2023/03/19 19:05:22;;;;;;;28.27;22.95;;;;;;;;;;10190979;28;20653;-65
2023/03/19 19:10:16;;;;;;;34.13;24.98;;;;;;;;;;10168190;28;20075;-65
2023/03/19 19:15:23;;;;;;;28.45;25.27;;;;;;;;;;10178973;28;20064;-64
2023/03/19 19:20:19;;;;;;;39.35;31.73;;;;;;;;;;10179485;28;20071;-72
2023/03/19 19:25:18;;;;;;;26.85;23.98;;;;;;;;;;10162819;28;20105;-64
2023/03/19 19:30:16;;;;;;;28.10;22.95;;;;;;;;;;10175277;28;20041;-69
2023/03/19 19:35:15;;;;;;;32.42;28.38;;;;;;;;;;10185321;28;20502;-64
2023/03/19 19:40:11;;;;;;;29.08;22.15;;;;;;;;;;10178249;28;20493;-63
2023/03/19 19:45:08;;;;;;;26.42;21.85;;;;;;;;;;10187598;28;20063;-64
2023/03/19 19:50:01;;;;;;;23.67;20.83;;;;;;;;;;10172848;28;20079;-63
2023/03/19 19:54:54;;;;;;;26.45;21.05;;;;;;;;;;10176830;28;20079;-63
2023/03/19 19:59:48;;;;;;;31.52;24.23;;;;;;;;;;10180643;28;20048;-64
2023/03/19 20:04:42;;;;;;;27.73;23.30;;;;;;;;;;10187986;28;20393;-64
2023/03/19 20:09:36;;;;;;;29.35;24.30;;;;;;;;;;10178046;28;20084;-64
2023/03/19 20:14:31;;;;;;;27.92;24.15;;;;;;;;;;10183682;28;20127;-63
2023/03/19 20:19:24;;;;;;;32.85;25.30;;;;;;;;;;10178258;28;20420;-63
2023/03/19 20:24:18;;;;;;;31.05;25.23;;;;;;;;;;10176775;28;20163;-64
2023/03/19 20:29:15;;;;;;;30.05;26.60;;;;;;;;;;10172279;28;20079;-64
2023/03/19 20:34:15;;;;;;;33.90;26.73;;;;;;;;;;10181588;28;20049;-64
2023/03/19 20:39:30;;;;;;;32.63;26.02;;;;;;;;;;10182070;28;20044;-63
2023/03/19 20:44:24;;;;;;;30.27;27.02;;;;;;;;;;10179744;28;20048;-63
2023/03/19 20:49:18;;;;;;;32.25;28.13;;;;;;;;;;10169261;28;20044;-64
2023/03/19 20:54:13;;;;;;;32.20;26.65;;;;;;;;;;10186103;28;20434;-63
2023/03/19 20:59:10;;;;;;;33.58;28.10;;;;;;;;;;10183526;28;20048;-63
2023/03/19 21:04:04;;;;;;;34.25;27.92;;;;;;;;;;10198928;28;20054;-63
2023/03/19 21:09:00;;;;;;;34.33;29.55;;;;;;;;;;10175317;28;20048;-63
2023/03/19 21:13:54;;;;;;;31.73;27.77;;;;;;;;;;10178200;28;20464;-64
2023/03/19 21:18:52;;;;;;;36.67;30.00;;;;;;;;;;10174964;28;20092;-64
2023/03/19 21:23:54;;;;;;;44.25;34.42;;;;;;;;;;10180520;28;20131;-63
2023/03/19 21:28:47;;;;;;;35.65;29.88;;;;;;;;;;10190970;28;20054;-63
2023/03/19 21:33:42;;;;;;;37.50;31.88;;;;;;;;;;10182624;28;20048;-63
2023/03/19 21:38:35;;;;;;;40.33;30.25;;;;;;;;;;10183237;28;20046;-63
2023/03/19 21:43:52;;;;;;;33.72;29.75;;;;;;;;;;10189294;28;20052;-63
2023/03/19 21:48:46;;;;;;;35.13;29.98;;;;;;;;;;10162498;28;20454;-63
2023/03/19 21:53:40;;;;;;;39.70;33.13;;;;;;;;;;10177193;28;20064;-63
2023/03/19 21:58:34;;;;;;;37.17;31.63;;;;;;;;;;10183803;28;20123;-63
2023/03/19 22:03:28;;;;;;;30.73;27.45;;;;;;;;;;10168574;28;20055;-63
2023/03/19 22:08:23;;;;;;;30.30;27.23;;;;;;;;;;10186269;28;20120;-63
2023/03/19 22:13:21;;;;;;;35.17;28.98;;;;;;;;;;10185585;28;20063;-63
2023/03/19 22:18:14;;;;;;;34.40;28.25;;;;;;;;;;10185574;28;20044;-63
2023/03/19 22:23:08;;;;;;;32.08;28.70;;;;;;;;;;10154108;28;20097;-63
2023/03/19 22:28:07;;;;;;;32.28;28.42;;;;;;;;;;10185292;28;20093;-63
2023/03/19 22:33:00;;;;;;;31.83;28.00;;;;;;;;;;10185109;28;20054;-62
2023/03/19 22:37:53;;;;;;;31.13;26.83;;;;;;;;;;10185915;28;20052;-63
2023/03/19 22:42:47;;;;;;;34.20;27.88;;;;;;;;;;10168121;28;20060;-63
2023/03/19 22:47:41;;;;;;;35.22;30.05;;;;;;;;;;10200865;28;20051;-62
2023/03/19 22:52:35;;;;;;;33.97;30.30;;;;;;;;;;10193009;28;20476;-62
2023/03/19 22:57:29;;;;;;;35.20;29.83;;;;;;;;;;10193361;28;20044;-62
2023/03/19 23:02:22;;;;;;;34.13;29.20;;;;;;;;;;10192286;28;20130;-63
2023/03/19 23:07:14;;;;;;;32.35;28.63;;;;;;;;;;10192991;28;20158;-63
2023/03/19 23:12:08;;;;;;;33.47;28.85;;;;;;;;;;10192745;28;20052;-63
2023/03/19 23:17:13;;;;;;;33.80;29.08;;;;;;;;;;10191916;28;20084;-63
2023/03/19 23:22:12;;;;;;;35.00;31.45;;;;;;;;;;10192401;28;20032;-63
2023/03/19 23:27:09;;;;;;;39.93;32.13;;;;;;;;;;10192014;28;20060;-63
2023/03/19 23:32:03;;;;;;;40.50;33.03;;;;;;;;;;10174608;28;20040;-63
2023/03/19 23:36:56;;;;;;;44.97;34.58;;;;;;;;;;10183991;28;20040;-63
2023/03/19 23:41:52;;;;;;;45.10;35.38;;;;;;;;;;10190734;28;20048;-63
2023/03/19 23:46:48;;;;;;;47.60;38.08;;;;;;;;;;10190991;28;20063;-63
2023/03/19 23:51:42;;;;;;;54.17;41.08;;;;;;;;;;10173237;28;20068;-63
2023/03/19 23:56:37;;;;;;;49.97;38.67;;;;;;;;;;10190497;28;20040;-63
